Time;durP1;ratioP1;P1;durP2;ratioP2;P2;SDS_P1;SDS_P2;PMS_P1;PMS_P2;Temp;Humidity;BMP_temperature;BMP_pressure;BME280_temperature;BME280_humidity;BME280_pressure;Samples;Min_cycle;Max_cycle;Signal;HPM_P1;HPM_P2
2022/04/21 00:00:20;;;;;;;22.15;12.77;;;21.70;58.90;;;;;;4920601;29;20028;-74
2022/04/21 00:02:46;;;;;;;26.30;14.23;;;21.70;58.70;;;;;;4923853;29;20020;-73
2022/04/21 00:05:13;;;;;;;31.77;16.10;;;21.70;58.30;;;;;;4924403;29;20388;-74
2022/04/21 00:07:39;;;;;;;30.65;16.58;;;21.70;58.00;;;;;;4925877;29;20031;-74
2022/04/21 00:10:06;;;;;;;27.42;16.08;;;21.70;57.90;;;;;;4931708;29;20118;-74
2022/04/21 00:12:34;;;;;;;28.35;16.45;;;21.70;57.80;;;;;;4925406;29;20031;-74
2022/04/21 00:15:04;;;;;;;23.63;14.40;;;21.70;57.80;;;;;;4923779;29;20032;-74
2022/04/21 00:17:30;;;;;;;27.98;15.07;;;21.70;57.70;;;;;;4926616;29;20028;-74
2022/04/21 00:19:56;;;;;;;28.02;14.48;;;21.70;57.80;;;;;;4924416;29;20036;-75
2022/04/21 00:25:06;;;;;;;28.95;14.70;;;21.70;57.80;;;;;;4917546;29;20083;-74
2022/04/21 00:27:43;;;;;;;27.20;13.35;;;21.70;57.80;;;;;;4916621;29;20042;-73
2022/04/21 00:30:11;;;;;;;26.60;14.75;;;21.70;57.80;;;;;;4916436;29;20044;-74
2022/04/21 00:32:38;;;;;;;21.52;13.30;;;21.70;57.70;;;;;;4913863;29;20030;-73
2022/04/21 00:35:06;;;;;;;21.35;13.15;;;21.70;57.80;;;;;;4911824;29;20031;-74
2022/04/21 00:37:32;;;;;;;19.95;12.43;;;21.70;57.80;;;;;;4908408;29;20512;-74
2022/04/21 00:39:59;;;;;;;23.73;14.13;;;21.70;57.80;;;;;;4924152;29;20033;-74
2022/04/21 00:42:25;;;;;;;23.60;14.18;;;21.70;57.90;;;;;;4917419;29;20035;-73
2022/04/21 00:44:50;;;;;;;21.05;13.25;;;21.70;57.80;;;;;;4919356;29;20385;-74
2022/04/21 00:47:18;;;;;;;23.40;12.90;;;21.70;57.80;;;;;;4921676;29;20032;-74
2022/04/21 00:49:47;;;;;;;20.77;12.75;;;21.70;57.80;;;;;;4917071;29;20115;-74
2022/04/21 00:52:15;;;;;;;23.38;13.50;;;21.70;57.90;;;;;;4916629;29;20036;-74
2022/04/21 00:54:41;;;;;;;20.30;13.23;;;21.70;57.80;;;;;;4916072;29;20506;-74
2022/04/21 00:57:08;;;;;;;20.40;12.57;;;21.70;57.90;;;;;;4924026;29;20428;-74
2022/04/21 00:59:35;;;;;;;19.83;12.32;;;21.70;57.80;;;;;;4933153;29;20040;-74
2022/04/21 01:04:48;;;;;;;19.85;11.50;;;21.70;58.10;;;;;;4923108;29;20032;-75
2022/04/21 01:07:13;;;;;;;19.50;12.25;;;21.70;58.10;;;;;;4898306;29;20079;-75
2022/04/21 01:09:39;;;;;;;20.33;11.48;;;21.70;58.20;;;;;;4926901;29;20036;-75
2022/04/21 01:12:09;;;;;;;18.10;12.23;;;21.70;58.00;;;;;;4925820;29;20492;-74
2022/04/21 01:14:38;;;;;;;;;;;21.70;58.00;;;;;;4922174;29;20131;-76
2022/04/21 01:17:08;;;;;;;17.92;11.00;;;21.70;58.00;;;;;;4926656;29;19917;-74
2022/04/21 01:19:34;;;;;;;20.10;12.23;;;21.70;58.00;;;;;;4935722;29;20039;-74
2022/04/21 01:22:00;;;;;;;20.20;12.02;;;21.70;58.40;;;;;;4934846;29;20453;-74
2022/04/21 01:24:26;;;;;;;19.73;11.55;;;21.70;58.50;;;;;;4935370;29;20144;-74
2022/04/21 01:26:57;;;;;;;21.73;11.77;;;21.70;58.70;;;;;;4925432;29;20125;-74
2022/04/21 01:29:23;;;;;;;20.88;11.65;;;21.70;58.80;;;;;;4931357;29;20571;-74
2022/04/21 01:31:48;;;;;;;22.98;11.23;;;21.70;58.60;;;;;;4935568;29;20031;-74
2022/04/21 01:34:14;;;;;;;20.23;11.40;;;21.70;58.60;;;;;;4935272;29;20111;-74
2022/04/21 01:41:08;;;;;;;17.95;10.98;;;21.70;58.50;;;;;;4933511;29;20613;-75
2022/04/21 01:42:18;;;;;;;18.77;11.43;;;21.70;58.60;;;;;;4915608;29;20372;-75
2022/04/21 01:44:44;;;;;;;18.63;11.02;;;21.70;58.70;;;;;;4922953;29;20492;-76
2022/04/21 01:47:11;;;;;;;16.58;9.73;;;21.60;58.60;;;;;;4916154;29;20438;-75
2022/04/21 01:49:37;;;;;;;17.98;10.55;;;21.70;58.50;;;;;;4925592;29;20031;-75
2022/04/21 01:52:03;;;;;;;18.52;10.77;;;21.70;58.50;;;;;;4935130;29;20031;-75
2022/04/21 01:54:29;;;;;;;19.98;10.52;;;21.70;58.50;;;;;;4920094;29;20043;-75
2022/04/21 01:56:54;;;;;;;18.10;10.60;;;21.60;58.50;;;;;;4914879;29;20040;-75
2022/04/21 01:59:20;;;;;;;20.02;11.02;;;21.70;58.70;;;;;;4916198;29;20039;-75
2022/04/21 02:01:46;;;;;;;18.67;10.40;;;21.70;58.50;;;;;;4914543;29;20024;-75
2022/04/21 02:04:11;;;;;;;19.02;9.82;;;21.70;58.60;;;;;;4921886;29;20436;-75
2022/04/21 02:06:37;;;;;;;18.02;10.13;;;21.70;58.50;;;;;;4917594;29;20027;-75
2022/04/21 02:09:03;;;;;;;19.70;10.48;;;21.70;58.60;;;;;;4915729;29;20043;-74
2022/04/21 02:11:29;;;;;;;19.45;11.13;;;21.70;58.60;;;;;;4899198;29;20401;-74
2022/04/21 02:13:55;;;;;;;17.50;9.50;;;21.70;58.40;;;;;;4915512;29;20118;-74
2022/04/21 02:16:21;;;;;;;17.90;10.27;;;21.60;58.50;;;;;;4913091;29;20358;-75
2022/04/21 02:23:10;;;;;;;17.77;10.00;;;21.70;58.40;;;;;;4907550;29;20424;-74
2022/04/21 02:25:41;;;;;;;18.15;10.02;;;21.70;58.10;;;;;;4912939;29;20039;-75
2022/04/21 02:28:17;;;;;;;18.85;9.30;;;21.70;58.30;;;;;;4923256;29;20032;-75
2022/04/21 02:30:43;;;;;;;15.63;9.38;;;21.70;58.40;;;;;;4898655;29;20040;-74
2022/04/21 02:33:08;;;;;;;17.83;9.48;;;21.70;58.50;;;;;;4915262;29;20035;-74
2022/04/21 02:35:34;;;;;;;14.60;9.13;;;21.70;58.30;;;;;;4916017;29;20028;-75
2022/04/21 02:38:00;;;;;;;16.88;9.80;;;21.60;58.30;;;;;;4929249;29;20039;-75
2022/04/21 02:40:25;;;;;;;19.30;9.50;;;21.60;58.50;;;;;;4914092;29;20028;-74
2022/04/21 02:42:51;;;;;;;18.75;9.25;;;21.60;58.20;;;;;;4926095;29;20035;-75
2022/04/21 02:45:17;;;;;;;16.48;9.23;;;21.60;58.20;;;;;;4934376;29;20412;-74
2022/04/21 02:47:43;;;;;;;15.77;9.18;;;21.60;58.30;;;;;;4934130;29;20019;-74
2022/04/21 02:50:12;;;;;;;15.00;8.50;;;21.60;58.10;;;;;;4921323;29;20088;-74
2022/04/21 02:52:39;;;;;;;18.73;9.32;;;21.70;58.10;;;;;;4931559;29;20499;-75
2022/04/21 02:57:50;;;;;;;17.02;9.18;;;21.60;58.20;;;;;;4934108;29;20038;-75
2022/04/21 03:07:33;;;;;;;15.20;8.88;;;21.60;58.30;;;;;;4881354;29;20130;-74
2022/04/21 03:09:58;;;;;;;13.25;8.30;;;21.60;58.10;;;;;;4922586;29;20040;-74
2022/04/21 03:12:26;;;;;;;15.95;8.43;;;21.60;58.10;;;;;;4914942;29;20441;-74
2022/04/21 03:18:20;;;;;;;15.60;8.15;;;21.70;58.40;;;;;;4932128;23;20407;-74
2022/04/21 03:26:17;;;;;;;14.27;8.35;;;21.60;58.00;;;;;;4904267;29;20025;-74
2022/04/21 03:28:43;;;;;;;14.80;7.80;;;21.60;58.00;;;;;;4899916;29;20084;-75
2022/04/21 03:31:12;;;;;;;15.30;8.07;;;21.60;57.90;;;;;;4900100;29;20090;-74
2022/04/21 03:33:37;;;;;;;12.13;7.38;;;21.60;57.70;;;;;;4929401;29;20050;-75
2022/04/21 03:36:03;;;;;;;13.75;7.47;;;21.60;58.00;;;;;;4937969;29;20038;-74
2022/04/21 03:38:29;;;;;;;13.55;7.78;;;21.60;57.90;;;;;;4937488;29;20429;-74
2022/04/21 03:40:56;;;;;;;12.98;7.03;;;21.60;58.00;;;;;;4925915;29;20523;-74
2022/04/21 03:43:22;;;;;;;13.32;7.88;;;21.60;57.90;;;;;;4921561;29;20035;-75
2022/04/21 03:45:48;;;;;;;14.27;8.10;;;21.60;57.90;;;;;;4918485;29;20024;-76
2022/04/21 03:48:14;;;;;;;13.10;7.40;;;21.60;58.00;;;;;;4918333;29;20382;-75
2022/04/21 03:50:39;;;;;;;13.57;7.22;;;21.60;57.90;;;;;;4917183;29;20385;-74
2022/04/21 03:53:06;;;;;;;13.25;7.35;;;21.60;57.10;;;;;;4917711;29;20036;-75
2022/04/21 03:55:32;;;;;;;13.77;7.45;;;21.60;57.70;;;;;;4925985;29;20160;-75
2022/04/21 03:57:57;;;;;;;14.77;7.53;;;21.60;57.80;;;;;;4929360;29;20032;-75
2022/04/21 04:00:23;;;;;;;14.93;7.68;;;21.60;57.30;;;;;;4937122;29;20050;-75
2022/04/21 04:02:49;;;;;;;14.05;7.00;;;21.60;58.00;;;;;;4937024;29;20032;-75
2022/04/21 04:05:15;;;;;;;13.55;7.25;;;21.60;57.50;;;;;;4937141;29;20024;-75
2022/04/21 04:13:10;;;;;;;12.45;7.38;;;21.60;57.60;;;;;;4936850;29;20024;-75
2022/04/21 04:15:36;;;;;;;14.07;7.68;;;21.60;57.70;;;;;;4927984;29;20040;-75
2022/04/21 04:18:01;;;;;;;11.73;6.95;;;21.60;57.40;;;;;;4929114;29;20027;-74
2022/04/21 04:20:27;;;;;;;12.85;6.90;;;21.60;57.60;;;;;;4921508;29;20149;-75
2022/04/21 04:22:52;;;;;;;14.07;6.97;;;21.60;57.40;;;;;;4928561;29;20503;-75
2022/04/21 04:25:18;;;;;;;16.38;6.82;;;21.60;58.00;;;;;;4934791;29;20035;-75
2022/04/21 04:27:44;;;;;;;12.55;7.05;;;21.60;58.10;;;;;;4931840;29;20763;-75
2022/04/21 04:30:10;;;;;;;17.42;7.43;;;21.70;58.10;;;;;;4923229;29;20506;-75
2022/04/21 04:32:36;;;;;;;16.40;8.02;;;21.60;57.80;;;;;;4920835;29;20061;-75
2022/04/21 04:35:02;;;;;;;15.30;6.90;;;21.60;57.80;;;;;;4928332;29;20028;-75
2022/04/21 04:37:28;;;;;;;14.93;7.22;;;21.60;57.70;;;;;;4925224;29;20032;-75
2022/04/21 04:39:55;;;;;;;13.48;6.55;;;21.60;57.60;;;;;;4920496;29;20034;-75
2022/04/21 04:42:22;;;;;;;16.85;7.07;;;21.60;57.30;;;;;;4927846;29;20776;-74
2022/04/21 04:46:34;;;;;;;16.20;6.68;;;21.60;57.40;;;;;;4912467;29;20032;-75
2022/04/21 04:47:36;;;;;;;14.63;6.53;;;21.60;56.80;;;;;;4925161;29;20028;-77
2022/04/21 04:50:02;;;;;;;14.00;6.22;;;21.60;56.50;;;;;;4935119;29;20047;-76
2022/04/21 04:52:28;;;;;;;15.40;6.57;;;21.60;56.80;;;;;;4928738;29;20040;-75
2022/04/21 04:54:54;;;;;;;11.65;6.13;;;21.60;56.80;;;;;;4926453;29;20038;-75
2022/04/21 04:57:19;;;;;;;14.38;7.45;;;21.60;56.60;;;;;;4928428;29;20441;-75
2022/04/21 04:59:45;;;;;;;16.98;6.90;;;21.60;57.30;;;;;;4929093;29;20036;-75
2022/04/21 05:02:11;;;;;;;11.13;6.13;;;21.60;57.30;;;;;;4928914;29;20027;-75
2022/04/21 05:04:37;;;;;;;12.90;6.75;;;21.60;57.30;;;;;;4924807;29;20048;-75
2022/04/21 05:07:03;;;;;;;14.45;6.85;;;21.60;57.60;;;;;;4935948;29;20067;-74
2022/04/21 05:09:29;;;;;;;13.02;6.35;;;21.60;57.20;;;;;;4923673;29;20596;-75
2022/04/21 05:11:58;;;;;;;12.50;5.82;;;21.60;57.00;;;;;;4916900;29;20115;-75
2022/04/21 05:14:25;;;;;;;12.48;6.45;;;21.60;56.50;;;;;;4916588;29;20036;-75
2022/04/21 05:16:51;;;;;;;12.93;6.82;;;21.60;57.10;;;;;;4916880;29;20507;-75
2022/04/21 05:19:19;;;;;;;11.43;6.50;;;21.60;57.50;;;;;;4913272;29;20429;-75
2022/04/21 05:21:46;;;;;;;12.98;6.13;;;21.60;57.40;;;;;;4923734;29;20082;-75
2022/04/21 05:24:13;;;;;;;13.60;6.20;;;21.60;57.00;;;;;;4927369;29;20024;-75
2022/04/21 05:26:40;;;;;;;11.30;5.80;;;21.60;57.20;;;;;;4927532;29;20099;-75
2022/04/21 05:31:55;;;;;;;13.93;6.50;;;21.60;57.30;;;;;;4934596;29;20070;-75
2022/04/21 05:34:22;;;;;;;14.40;6.70;;;21.60;57.20;;;;;;4930656;29;20063;-75
2022/04/21 05:36:49;;;;;;;14.45;6.25;;;21.60;57.80;;;;;;4919722;29;20654;-75
2022/04/21 05:39:15;;;;;;;12.82;5.90;;;21.60;56.50;;;;;;4916670;29;20036;-75
2022/04/21 05:41:42;;;;;;;13.40;5.28;;;21.60;56.40;;;;;;4925458;29;20034;-75
2022/04/21 05:44:08;;;;;;;9.13;5.50;;;21.60;56.40;;;;;;4929159;29;20035;-75
2022/04/21 05:46:33;;;;;;;12.60;6.18;;;21.60;56.40;;;;;;4920376;29;20033;-75
2022/04/21 05:49:00;;;;;;;14.38;6.00;;;21.60;56.60;;;;;;4927212;29;20031;-75
2022/04/21 05:51:26;;;;;;;12.20;6.07;;;21.60;56.70;;;;;;4934315;29;20028;-75
2022/04/21 05:53:52;;;;;;;12.70;6.18;;;21.60;56.70;;;;;;4926949;29;20062;-75
2022/04/21 05:56:18;;;;;;;12.30;5.85;;;21.60;56.70;;;;;;4931035;29;20035;-75
2022/04/21 05:58:44;;;;;;;11.20;6.13;;;21.60;56.50;;;;;;4928541;29;20059;-74
2022/04/21 06:01:10;;;;;;;11.00;5.50;;;21.60;56.50;;;;;;4922956;29;20052;-74
2022/04/21 06:03:37;;;;;;;10.43;6.15;;;21.60;56.50;;;;;;4933116;29;20365;-75
2022/04/21 06:06:04;;;;;;;13.75;5.45;;;21.60;56.50;;;;;;4934918;29;20028;-74
2022/04/21 06:08:30;;;;;;;9.85;5.30;;;21.60;56.70;;;;;;4928169;29;20032;-75
2022/04/21 06:10:56;;;;;;;10.38;5.72;;;21.60;56.40;;;;;;4920520;29;20413;-75
2022/04/21 06:13:26;;;;;;;11.23;5.53;;;21.60;56.30;;;;;;4931145;29;20159;-75
2022/04/21 06:15:53;;;;;;;12.80;5.80;;;21.60;56.30;;;;;;4917378;29;20035;-74
2022/04/21 06:18:19;;;;;;;11.27;5.60;;;21.60;56.90;;;;;;4921896;29;20481;-75
2022/04/21 06:20:46;;;;;;;10.27;5.85;;;21.60;56.60;;;;;;4921460;29;20044;-75
2022/04/21 06:23:12;;;;;;;11.07;5.93;;;21.60;56.30;;;;;;4914360;29;20038;-74
2022/04/21 06:25:38;;;;;;;11.52;5.68;;;21.60;57.00;;;;;;4915975;29;20032;-74
2022/04/21 06:28:04;;;;;;;10.75;5.60;;;21.60;56.70;;;;;;4908446;29;20055;-74
2022/04/21 06:30:31;;;;;;;8.73;5.70;;;21.60;56.40;;;;;;4905139;29;20040;-74
2022/04/21 06:32:58;;;;;;;11.45;6.15;;;21.60;56.60;;;;;;4929916;29;20480;-74
2022/04/21 06:35:25;;;;;;;11.30;5.60;;;21.60;56.40;;;;;;4920007;29;20031;-74
2022/04/21 06:37:54;;;;;;;9.30;5.40;;;21.60;56.40;;;;;;4926671;29;20492;-74
2022/04/21 06:40:21;;;;;;;10.82;5.55;;;21.60;56.90;;;;;;4917781;29;20040;-75
2022/04/21 06:42:46;;;;;;;9.85;5.43;;;21.60;56.50;;;;;;4911657;29;20123;-75
2022/04/21 06:48:08;;;;;;;12.45;5.50;;;21.60;56.70;;;;;;4927158;29;20024;-74
2022/04/21 06:50:36;;;;;;;10.45;5.60;;;21.60;57.30;;;;;;4931256;29;20094;-75
2022/04/21 06:53:04;;;;;;;13.13;5.65;;;21.60;56.50;;;;;;4933815;29;20027;-75
2022/04/21 06:55:30;;;;;;;9.15;5.35;;;21.60;57.20;;;;;;4921817;29;20026;-75
2022/04/21 06:57:56;;;;;;;11.20;5.95;;;21.60;56.40;;;;;;4927305;29;20028;-75
2022/04/21 07:00:26;;;;;;;12.00;5.75;;;21.60;57.30;;;;;;4917909;29;20460;-74
2022/04/21 07:02:54;;;;;;;10.45;5.22;;;21.60;56.70;;;;;;4918574;29;20027;-75
2022/04/21 07:05:22;;;;;;;9.43;5.70;;;21.60;56.30;;;;;;4925070;29;20460;-75
2022/04/21 07:07:48;;;;;;;10.50;5.07;;;21.60;56.40;;;;;;4924731;29;20062;-75
2022/04/21 07:10:14;;;;;;;10.75;5.70;;;21.60;56.10;;;;;;4922864;29;20031;-75
2022/04/21 07:12:40;;;;;;;11.00;5.30;;;21.60;56.20;;;;;;4922600;29;20106;-75
2022/04/21 07:15:08;;;;;;;11.20;5.10;;;21.60;56.30;;;;;;4928283;29;20040;-74
2022/04/21 07:17:35;;;;;;;11.07;5.45;;;21.60;57.00;;;;;;4934050;29;20040;-75
2022/04/21 07:20:03;;;;;;;11.90;5.45;;;21.60;56.70;;;;;;4914742;29;20027;-75
2022/04/21 07:22:29;;;;;;;14.57;5.68;;;21.70;57.40;;;;;;4930097;29;20051;-75
2022/04/21 07:24:56;;;;;;;9.32;5.40;;;21.60;57.50;;;;;;4933788;29;20059;-75
2022/04/21 07:27:22;;;;;;;10.90;5.15;;;21.60;57.20;;;;;;4934022;29;20155;-75
2022/04/21 07:29:49;;;;;;;10.45;5.47;;;21.60;57.20;;;;;;4933998;29;20463;-75
2022/04/21 07:32:15;;;;;;;10.02;5.28;;;21.60;57.10;;;;;;4924864;29;20061;-75
2022/04/21 07:34:41;;;;;;;10.75;5.40;;;21.60;57.20;;;;;;4898559;29;20123;-75
2022/04/21 07:37:09;;;;;;;11.07;5.03;;;21.60;57.40;;;;;;4922526;29;20072;-75
2022/04/21 07:39:36;;;;;;;9.98;4.85;;;21.60;57.30;;;;;;4918319;29;20116;-76
2022/04/21 07:42:03;;;;;;;9.10;5.28;;;21.60;56.30;;;;;;4917626;29;20502;-75
2022/04/21 07:44:30;;;;;;;14.23;5.80;;;21.60;57.50;;;;;;4919707;29;20152;-75
2022/04/21 07:46:55;;;;;;;9.65;4.97;;;21.60;57.10;;;;;;4923825;29;20024;-75
2022/04/21 07:54:52;;;;;;;11.05;5.20;;;21.60;57.70;;;;;;4933659;29;20047;-75
2022/04/21 07:57:17;;;;;;;10.45;4.78;;;21.60;57.80;;;;;;4933495;29;20043;-74
2022/04/21 07:59:44;;;;;;;11.27;4.70;;;21.60;57.70;;;;;;4916064;29;20043;-74
2022/04/21 08:02:11;;;;;;;9.32;4.93;;;21.60;57.80;;;;;;4923845;29;20485;-75
2022/04/21 08:04:40;;;;;;;9.88;5.25;;;21.60;58.10;;;;;;4934089;29;20046;-75
2022/04/21 08:07:06;;;;;;;13.57;5.07;;;21.60;58.20;;;;;;4937216;29;20586;-74
2022/04/21 08:09:32;;;;;;;12.10;5.53;;;21.60;58.40;;;;;;4926271;29;20039;-75
2022/04/21 08:11:58;;;;;;;11.77;4.93;;;21.60;58.70;;;;;;4922760;29;20404;-74
2022/04/21 08:14:24;;;;;;;10.90;5.00;;;21.60;58.80;;;;;;4929114;29;20040;-75
2022/04/21 08:16:53;;;;;;;13.02;4.82;;;21.60;58.60;;;;;;4925189;29;20428;-75
2022/04/21 08:19:22;;;;;;;12.77;5.22;;;21.60;58.80;;;;;;4921055;29;20039;-75
2022/04/21 08:21:48;;;;;;;11.63;5.13;;;21.60;58.70;;;;;;4927979;29;20031;-74
2022/04/21 08:32:33;;;;;;;12.23;5.20;;;21.60;59.30;;;;;;4926227;29;20036;-75
2022/04/21 08:35:03;;;;;;;10.50;4.65;;;21.60;59.10;;;;;;4918723;29;20086;-75
2022/04/21 08:37:33;;;;;;;;;;;21.60;59.30;;;;;;4919846;29;20087;-75
2022/04/21 08:39:59;;;;;;;;;;;21.60;58.90;;;;;;4923381;29;19959;-75
2022/04/21 08:42:29;;;;;;;9.20;4.60;;;21.60;58.80;;;;;;4925568;29;19922;-75
2022/04/21 08:44:57;;;;;;;12.25;4.88;;;21.60;59.00;;;;;;4927884;29;20035;-74
2022/04/21 08:47:27;;;;;;;14.02;5.35;;;21.60;58.80;;;;;;4936601;29;20035;-75
2022/04/21 08:49:57;;;;;;;9.40;4.47;;;21.60;58.80;;;;;;4936498;29;20032;-75
2022/04/21 08:52:23;;;;;;;11.65;5.22;;;21.60;58.80;;;;;;4936776;29;20488;-75
2022/04/21 08:54:49;;;;;;;11.52;5.07;;;21.60;58.90;;;;;;4928098;29;20091;-73
2022/04/21 08:57:15;;;;;;;11.65;5.10;;;21.60;59.00;;;;;;4924061;29;20028;-74
2022/04/21 08:59:41;;;;;;;12.43;5.30;;;21.60;59.30;;;;;;4916145;29;20020;-75
2022/04/21 09:02:07;;;;;;;10.15;4.85;;;21.60;59.70;;;;;;4928259;29;20452;-74
2022/04/21 09:04:32;;;;;;;13.13;4.63;;;21.70;59.60;;;;;;4918547;29;20032;-73
2022/04/21 09:07:21;;;;;;;10.95;4.75;;;21.80;59.40;;;;;;4930694;29;20083;-74
2022/04/21 09:10:04;;;;;;;14.52;5.13;;;21.80;59.00;;;;;;4906148;29;20056;-74
2022/04/21 09:12:30;;;;;;;17.27;4.88;;;21.80;59.30;;;;;;4928446;29;20457;-76
2022/04/21 09:14:57;;;;;;;15.07;5.25;;;21.80;59.20;;;;;;4934461;29;20035;-74
2022/04/21 09:17:23;;;;;;;17.55;5.10;;;21.80;59.20;;;;;;4915799;29;20567;-75
2022/04/21 09:19:59;;;;;;;16.00;5.10;;;21.80;59.50;;;;;;4943663;23;20090;-78
2022/04/21 09:22:30;;;;;;;17.42;5.88;;;21.80;59.80;;;;;;4934164;29;20362;-78
2022/04/21 09:24:58;;;;;;;15.13;5.50;;;21.80;59.90;;;;;;4928311;29;20043;-78
2022/04/21 09:27:24;;;;;;;18.13;5.57;;;21.80;60.30;;;;;;4923782;29;20034;-78
2022/04/21 09:29:56;;;;;;;19.27;5.95;;;21.80;60.60;;;;;;4935928;29;20036;-79
2022/04/21 09:32:22;;;;;;;11.98;5.95;;;21.90;61.00;;;;;;4918877;29;20031;-79
2022/04/21 09:34:50;;;;;;;18.50;6.22;;;21.90;61.20;;;;;;4903476;29;20042;-80
2022/04/21 09:37:20;;;;;;;12.95;4.88;;;21.90;62.10;;;;;;4927847;29;20481;-80
2022/04/21 09:39:52;;;;;;;;;;;21.90;59.20;;;;;;4916938;29;20115;-78
2022/04/21 09:42:29;;;;;;;11.77;5.30;;;21.90;61.50;;;;;;4915914;29;19963;-79
2022/04/21 09:47:53;;;;;;;17.90;5.28;;;21.90;60.70;;;;;;4916988;29;20068;-79
2022/04/21 09:50:20;;;;;;;13.85;5.18;;;21.90;59.80;;;;;;4899962;29;20365;-79
2022/04/21 09:52:52;;;;;;;12.75;5.05;;;21.80;59.40;;;;;;4915180;29;20500;-80
2022/04/21 09:55:26;;;;;;;10.75;4.75;;;21.80;59.40;;;;;;4899962;29;20118;-79
2022/04/21 09:58:03;;;;;;;12.57;4.90;;;21.80;59.30;;;;;;4899181;29;20115;-79
2022/04/21 10:00:30;;;;;;;12.77;4.50;;;21.80;59.20;;;;;;4916523;29;20112;-79
2022/04/21 10:02:56;;;;;;;10.30;4.47;;;21.80;59.20;;;;;;4915952;29;20028;-79
2022/04/21 10:05:24;;;;;;;14.02;5.10;;;21.80;59.10;;;;;;4916769;29;20033;-78
2022/04/21 10:07:50;;;;;;;13.35;4.97;;;21.80;59.00;;;;;;4916858;29;20485;-78
2022/04/21 10:10:17;;;;;;;14.38;4.97;;;21.80;58.90;;;;;;4915037;29;20347;-78
2022/04/21 10:12:43;;;;;;;12.90;4.88;;;21.80;58.90;;;;;;4899403;29;20040;-77
2022/04/21 10:15:10;;;;;;;16.08;4.72;;;21.80;58.90;;;;;;4911679;29;20033;-78
2022/04/21 10:17:36;;;;;;;16.90;5.38;;;21.80;58.90;;;;;;4912503;29;20484;-79
2022/04/21 10:20:04;;;;;;;13.75;5.22;;;21.80;58.90;;;;;;4914055;29;20032;-78
2022/04/21 10:22:33;;;;;;;19.25;5.38;;;21.80;59.50;;;;;;4905424;29;20035;-79
2022/04/21 10:25:00;;;;;;;;;;;21.90;59.90;;;;;;4896916;29;20095;-80
2022/04/21 10:27:39;;;;;;;16.42;5.18;;;21.80;60.10;;;;;;4904089;29;19998;-79
2022/04/21 10:30:15;;;;;;;17.05;5.88;;;21.90;60.10;;;;;;4910772;29;20559;-79
2022/04/21 10:32:51;;;;;;;18.13;5.60;;;21.90;60.50;;;;;;4915907;29;20401;-77
2022/04/21 10:35:28;;;;;;;14.80;5.32;;;21.90;61.10;;;;;;4906483;29;20032;-76
2022/04/21 10:38:12;;;;;;;17.60;6.25;;;21.90;59.70;;;;;;4914389;29;20032;-79
2022/04/21 10:41:10;;;;;;;19.60;6.20;;;22.00;61.20;;;;;;4914585;29;20032;-78
2022/04/21 10:43:48;;;;;;;15.60;7.00;;;21.90;61.90;;;;;;4913627;29;20024;-78
2022/04/21 10:46:22;;;;;;;17.60;7.63;;;21.90;62.90;;;;;;4891441;29;20505;-79
2022/04/21 10:48:49;;;;;;;15.80;6.78;;;22.00;63.70;;;;;;4907739;29;20115;-78
2022/04/21 10:57:17;;;;;;;24.77;6.72;;;22.00;62.50;;;;;;4912926;29;20032;-79
2022/04/21 11:00:03;;;;;;;15.40;6.40;;;22.00;61.90;;;;;;4906226;29;20103;-79
2022/04/21 11:02:43;;;;;;;13.88;6.30;;;22.00;60.90;;;;;;4914347;29;20029;-77
2022/04/21 11:05:38;;;;;;;18.30;6.53;;;22.00;60.20;;;;;;4914040;29;20075;-79
2022/04/21 11:08:13;;;;;;;17.60;6.97;;;22.00;62.30;;;;;;4900039;29;20398;-78
2022/04/21 11:10:42;;;;;;;14.02;5.75;;;21.90;60.00;;;;;;4914194;29;20048;-80
2022/04/21 11:13:13;;;;;;;19.55;5.53;;;21.90;59.10;;;;;;4915066;29;20516;-80
2022/04/21 11:15:45;;;;;;;18.08;5.88;;;21.90;60.60;;;;;;4914859;29;20103;-80
2022/04/21 11:18:35;;;;;;;15.43;5.47;;;21.90;61.00;;;;;;4915139;29;20040;-79
2022/04/21 11:21:26;;;;;;;14.73;5.50;;;21.90;61.90;;;;;;4915459;29;20048;-79
2022/04/21 11:23:52;;;;;;;14.73;5.63;;;21.90;60.70;;;;;;4895319;29;20039;-79
2022/04/21 11:26:25;;;;;;;18.98;5.97;;;21.90;61.10;;;;;;4909369;29;20115;-78
2022/04/21 11:28:51;;;;;;;16.50;6.20;;;21.90;61.80;;;;;;4918736;29;20032;-78
2022/04/21 11:31:24;;;;;;;13.82;5.40;;;21.90;59.60;;;;;;4916935;29;20028;-79
2022/04/21 11:33:51;;;;;;;12.40;6.07;;;21.90;60.40;;;;;;4900783;29;20108;-80
2022/04/21 11:36:17;;;;;;;14.27;5.18;;;21.90;60.20;;;;;;4899041;29;20115;-79
2022/04/21 11:38:44;;;;;;;13.13;5.68;;;21.90;60.30;;;;;;4898846;29;20694;-77
2022/04/21 11:41:12;;;;;;;21.23;6.50;;;21.90;60.10;;;;;;4899205;29;20114;-78
2022/04/21 11:43:45;;;;;;;29.20;6.95;;;21.90;61.20;;;;;;4900794;29;20032;-79
2022/04/21 11:46:12;;;;;;;17.25;5.93;;;22.00;61.10;;;;;;4915650;29;20055;-79
2022/04/21 11:48:40;;;;;;;19.38;6.50;;;21.90;61.20;;;;;;4899582;29;20549;-78
2022/04/21 11:51:12;;;;;;;16.77;6.15;;;21.90;61.20;;;;;;4913380;29;20099;-81
2022/04/21 11:53:42;;;;;;;21.08;6.32;;;21.90;61.00;;;;;;4915131;29;20059;-82
2022/04/21 11:56:10;;;;;;;18.67;5.45;;;21.90;61.30;;;;;;4917832;29;20024;-82
2022/04/21 11:58:41;;;;;;;19.10;6.15;;;21.90;61.40;;;;;;4913177;29;20024;-82
2022/04/21 12:06:48;;;;;;;28.13;10.85;;;21.80;57.10;;;;;;4908084;29;20426;-79
2022/04/21 12:09:16;;;;;;;24.65;9.48;;;21.70;57.50;;;;;;4916950;29;20043;-81
2022/04/21 12:11:47;;;;;;;20.95;9.20;;;21.80;58.10;;;;;;4914527;29;20436;-79
2022/04/21 12:14:13;;;;;;;18.58;8.35;;;21.80;57.80;;;;;;4898344;29;20568;-79
2022/04/21 12:16:47;;;;;;;25.08;8.73;;;21.80;57.60;;;;;;4909135;29;20028;-80
2022/04/21 12:19:20;;;;;;;29.23;9.38;;;21.80;57.50;;;;;;4898913;29;20071;-80
2022/04/21 12:21:58;;;;;;;20.75;7.88;;;21.80;57.30;;;;;;4894882;29;20029;-81
2022/04/21 12:24:50;;;;;;;17.23;7.78;;;21.80;57.40;;;;;;4898849;29;20028;-80
2022/04/21 12:27:20;;;;;;;18.75;7.90;;;21.80;57.20;;;;;;4893855;29;20096;-79
2022/04/21 12:30:00;;;;;;;19.40;7.90;;;21.80;57.20;;;;;;4897588;29;20071;-78
2022/04/21 12:32:27;;;;;;;;;;;21.70;56.70;;;;;;4905115;29;20039;-79
2022/04/21 12:34:58;;;;;;;20.33;6.53;;;21.80;56.30;;;;;;4912886;29;19918;-80
2022/04/21 12:37:29;;;;;;;12.80;6.35;;;21.80;56.20;;;;;;4913063;29;20078;-80
2022/04/21 12:39:55;;;;;;;18.95;7.65;;;21.90;56.00;;;;;;4915918;29;20080;-80
2022/04/21 12:42:21;;;;;;;49.90;13.63;;;21.90;57.60;;;;;;4900672;29;20028;-80
2022/04/21 12:44:50;;;;;;;55.53;15.30;;;21.90;57.20;;;;;;4907669;29;20028;-79
2022/04/21 12:47:20;;;;;;;52.35;15.05;;;21.90;56.80;;;;;;4915422;29;20032;-80
2022/04/21 12:49:56;;;;;;;50.75;13.85;;;21.90;56.90;;;;;;4916403;29;20493;-79
2022/04/21 12:52:36;;;;;;;63.47;15.63;;;21.90;56.80;;;;;;4916205;29;20040;-79
2022/04/21 12:55:13;;;;;;;103.40;31.48;;;21.90;58.70;;;;;;4884636;29;20036;-79
2022/04/21 12:57:40;;;;;;;66.20;20.52;;;21.90;59.70;;;;;;4896584;29;20493;-79
2022/04/21 13:00:10;;;;;;;51.63;18.80;;;21.90;59.30;;;;;;4891404;29;20124;-80
2022/04/21 13:02:37;;;;;;;52.65;19.63;;;21.90;58.10;;;;;;4897125;29;20032;-80
2022/04/21 13:05:03;;;;;;;41.25;15.65;;;21.90;59.00;;;;;;4900015;29;20508;-80
2022/04/21 13:07:29;;;;;;;40.58;17.13;;;21.90;57.00;;;;;;4899972;29;20067;-79
2022/04/21 13:09:55;;;;;;;42.30;15.23;;;21.90;59.40;;;;;;4880332;29;20040;-81
2022/04/21 13:12:21;;;;;;;40.67;14.77;;;21.90;59.10;;;;;;4896899;29;20062;-80
2022/04/21 13:14:47;;;;;;;42.10;14.35;;;21.90;59.20;;;;;;4906696;29;20340;-81
2022/04/21 13:17:13;;;;;;;40.45;14.25;;;21.90;59.00;;;;;;4866162;29;20044;-82
2022/04/21 13:19:38;;;;;;;42.28;13.90;;;21.90;58.50;;;;;;4881166;29;20103;-79
2022/04/21 13:22:04;;;;;;;29.55;12.43;;;21.90;58.00;;;;;;4905393;29;20540;-81
2022/04/21 13:24:31;;;;;;;34.83;13.05;;;22.00;58.00;;;;;;4916187;29;20111;-80
2022/04/21 13:26:59;;;;;;;37.00;12.75;;;22.00;57.80;;;;;;4916653;29;20039;-80
2022/04/21 13:29:27;;;;;;;38.03;12.45;;;21.90;57.70;;;;;;4915602;29;20043;-80
2022/04/21 13:34:37;;;;;;;34.97;11.57;;;21.90;58.00;;;;;;4880581;29;20481;-81
2022/04/21 13:37:04;;;;;;;37.83;11.98;;;21.90;57.90;;;;;;4913176;29;20043;-74
2022/04/21 13:39:30;;;;;;;31.50;10.50;;;21.90;58.30;;;;;;4913847;29;20032;-81
2022/04/21 13:41:56;;;;;;;38.55;11.73;;;21.90;58.10;;;;;;4915073;29;20035;-78
2022/04/21 13:44:22;;;;;;;35.50;11.23;;;22.00;57.60;;;;;;4893502;29;20032;-83
2022/04/21 13:46:48;;;;;;;31.30;10.30;;;22.00;58.00;;;;;;4899766;29;20043;-82
2022/04/21 13:49:14;;;;;;;42.53;11.45;;;21.90;58.40;;;;;;4914335;29;20051;-80
2022/04/21 13:51:40;;;;;;;34.17;12.20;;;21.90;59.00;;;;;;4881533;29;20111;-81
2022/04/21 13:54:07;;;;;;;50.35;13.57;;;22.00;62.60;;;;;;4890387;29;20131;-84